Terminal Aerodrome Forecast
Issued by NWS

Home | Current Version | Previous Version | Text Only | Print | Product List | Glossary On
Versions: 1 2 3 4 5 6 7 8 9 10 11 12 13 14 15 16 17 18 19 20 21 22 23 24 25 26 27 28 29 30 31 32 33 34 35 36 37 38 39 40 41 42 43 44 45 46 47 48 49 50
013
FTUS46 KEKA 140309 AAA
TAFACV
TAF AMD
KACV 140309Z 1403/1424 10003KT 6SM BR BKN050 OVC070
     FM140700 12003KT P6SM OVC050
     FM141600 11003KT 5SM BR VCSH SCT025 OVC040
     FM141800 26004KT 4SM BR OVC015=

USA.gov is the U.S. government's official web portal to all federal, state and local government web resources and services.